Time;durP1;ratioP1;P1;durP2;ratioP2;P2;SDS_P1;SDS_P2;PMS_P1;PMS_P2;Temp;Humidity;BMP_temperature;BMP_pressure;BME280_temperature;BME280_humidity;BME280_pressure;Samples;Min_cycle;Max_cycle;Signal;HPM_P1;HPM_P2
2021/03/25 00:01:31;;;;;;;23.17;15.13;;;15.10;58.30;;;;;;5120878;27;20430;-64
2021/03/25 00:03:57;;;;;;;28.70;15.52;;;15.20;57.70;;;;;;5125830;27;20039;-64
2021/03/25 00:06:26;;;;;;;24.45;14.73;;;15.20;57.90;;;;;;5122372;27;20031;-64
2021/03/25 00:08:53;;;;;;;26.90;15.77;;;15.30;57.90;;;;;;5124194;27;20027;-64
2021/03/25 00:11:19;;;;;;;22.52;13.98;;;15.40;57.70;;;;;;5125775;27;20036;-64
2021/03/25 00:13:45;;;;;;;24.50;14.68;;;15.40;57.60;;;;;;5116612;27;20092;-64
2021/03/25 00:16:12;;;;;;;25.92;16.27;;;15.50;57.30;;;;;;5126313;27;20061;-65
2021/03/25 00:18:38;;;;;;;28.10;16.90;;;15.50;56.60;;;;;;5123748;27;20076;-65
2021/03/25 00:21:06;;;;;;;27.98;14.50;;;15.00;56.30;;;;;;5126108;27;20579;-65
2021/03/25 00:23:32;;;;;;;22.90;14.07;;;14.50;58.00;;;;;;5129063;27;20042;-65
2021/03/25 00:25:58;;;;;;;21.35;12.15;;;14.60;59.00;;;;;;5124662;27;20039;-65
2021/03/25 00:28:24;;;;;;;20.88;12.23;;;14.80;60.10;;;;;;5127589;27;20096;-65
2021/03/25 00:30:50;;;;;;;20.08;12.50;;;15.10;60.00;;;;;;5124394;27;20469;-65
2021/03/25 00:33:18;;;;;;;20.65;11.48;;;15.40;59.50;;;;;;5123373;27;20039;-66
2021/03/25 00:35:44;;;;;;;18.23;10.75;;;15.60;59.00;;;;;;5124952;27;20067;-66
2021/03/25 00:38:12;;;;;;;19.83;11.73;;;15.80;58.90;;;;;;5127569;27;20054;-66
2021/03/25 00:40:38;;;;;;;18.08;11.45;;;16.00;57.90;;;;;;5123654;27;20035;-66
2021/03/25 00:43:07;;;;;;;19.83;11.75;;;16.10;57.40;;;;;;5122888;27;20042;-66
2021/03/25 00:45:43;;;;;;;17.98;11.48;;;16.20;57.00;;;;;;5125072;27;20035;-66
2021/03/25 00:48:11;;;;;;;17.70;10.45;;;16.20;56.60;;;;;;5124877;27;20057;-65
2021/03/25 00:50:44;;;;;;;17.27;12.02;;;16.30;56.40;;;;;;5116593;27;20046;-66
2021/03/25 00:53:14;;;;;;;18.88;10.93;;;16.30;56.10;;;;;;5127234;27;20482;-66
2021/03/25 00:55:40;;;;;;;16.02;10.80;;;16.40;56.20;;;;;;5122818;27;20274;-67
2021/03/25 00:58:06;;;;;;;16.25;9.90;;;16.40;56.10;;;;;;5123754;27;20534;-68
2021/03/25 01:00:35;;;;;;;18.35;10.82;;;16.40;56.00;;;;;;5125787;27;20153;-69
2021/03/25 01:03:01;;;;;;;17.85;10.35;;;16.40;55.90;;;;;;5124898;27;20053;-68
2021/03/25 01:05:29;;;;;;;16.63;9.85;;;16.40;55.80;;;;;;5126635;27;20031;-69
2021/03/25 01:07:55;;;;;;;17.38;10.73;;;16.40;55.70;;;;;;5124507;27;20032;-68
2021/03/25 01:10:32;;;;;;;17.73;10.90;;;16.40;55.60;;;;;;5123361;27;20039;-68
2021/03/25 01:13:00;;;;;;;14.43;9.40;;;16.40;55.50;;;;;;5125976;27;20092;-65
2021/03/25 01:15:26;;;;;;;15.68;10.55;;;16.40;55.40;;;;;;5124426;27;20041;-66
2021/03/25 01:17:55;;;;;;;15.85;9.85;;;16.40;55.40;;;;;;5122771;27;20031;-67
2021/03/25 01:20:29;;;;;;;12.90;8.82;;;16.50;55.30;;;;;;5125013;27;20039;-67
2021/03/25 01:22:55;;;;;;;16.80;10.40;;;16.50;55.60;;;;;;5119209;27;20035;-67
2021/03/25 01:25:21;;;;;;;14.18;8.95;;;16.50;55.30;;;;;;5125023;27;20035;-67
2021/03/25 01:27:48;;;;;;;14.05;8.88;;;16.50;55.30;;;;;;5119174;27;20041;-68
2021/03/25 01:30:15;;;;;;;17.67;10.30;;;16.50;55.30;;;;;;5125015;27;20062;-67
2021/03/25 01:32:41;;;;;;;16.58;9.63;;;16.40;55.00;;;;;;5126242;27;20047;-68
2021/03/25 01:35:10;;;;;;;13.90;8.40;;;16.40;55.10;;;;;;5128069;27;20033;-67
2021/03/25 01:37:39;;;;;;;15.07;9.00;;;16.50;55.00;;;;;;5117477;27;20043;-67
2021/03/25 01:40:11;;;;;;;15.75;9.27;;;16.50;54.90;;;;;;5124016;27;20039;-67
2021/03/25 01:42:37;;;;;;;16.15;9.35;;;16.50;54.90;;;;;;5123844;27;20031;-67
2021/03/25 01:45:29;;;;;;;15.13;8.43;;;16.50;54.80;;;;;;5117971;27;20057;-68
2021/03/25 01:47:59;;;;;;;12.60;8.02;;;16.50;54.80;;;;;;5124455;27;20385;-68
2021/03/25 01:50:25;;;;;;;15.65;8.98;;;16.50;54.70;;;;;;5126889;27;20063;-67
2021/03/25 01:53:12;;;;;;;21.02;12.95;;;16.30;54.30;;;;;;5126517;27;20043;-67
2021/03/25 01:55:45;;;;;;;11.90;8.45;;;15.90;52.90;;;;;;5122453;27;20490;-67
2021/03/25 01:58:48;;;;;;;23.65;15.15;;;15.40;55.10;;;;;;5122732;27;20035;-67
2021/03/25 02:01:35;;;;;;;21.27;15.13;;;15.00;53.20;;;;;;5125112;27;20054;-67
2021/03/25 02:04:07;;;;;;;15.27;10.38;;;14.00;53.60;;;;;;5123565;27;20043;-67
2021/03/25 02:06:57;;;;;;;15.20;9.00;;;13.10;57.00;;;;;;5126179;27;20431;-65
2021/03/25 02:09:52;;;;;;;13.48;9.55;;;13.00;60.50;;;;;;5124214;27;20440;-65
2021/03/25 02:12:24;;;;;;;12.55;8.93;;;13.40;61.70;;;;;;5124920;27;20072;-65
2021/03/25 02:15:20;;;;;;;13.82;8.52;;;13.80;60.40;;;;;;5128610;27;20043;-65
2021/03/25 02:17:56;;;;;;;15.85;8.20;;;14.10;58.40;;;;;;5123404;27;20046;-65
2021/03/25 02:20:51;;;;;;;12.82;8.48;;;14.10;59.50;;;;;;5122894;27;20900;-65
2021/03/25 02:23:47;;;;;;;17.58;11.43;;;14.10;58.00;;;;;;5126617;27;20039;-65
2021/03/25 02:26:48;;;;;;;13.88;9.20;;;14.00;58.80;;;;;;5116084;27;20124;-67
2021/03/25 02:29:37;;;;;;;16.55;9.38;;;14.20;59.50;;;;;;5051799;28;20037;-68
2021/03/25 02:32:07;;;;;;;16.08;9.48;;;14.50;58.40;;;;;;5123154;27;20074;-68
2021/03/25 02:34:52;;;;;;;14.13;8.07;;;14.50;58.10;;;;;;5127846;27;20066;-67
2021/03/25 02:37:29;;;;;;;13.73;7.97;;;14.50;58.80;;;;;;5131816;27;20042;-68
2021/03/25 02:40:03;;;;;;;14.65;9.05;;;14.60;58.60;;;;;;5119061;27;20052;-68
2021/03/25 02:42:38;;;;;;;17.33;10.77;;;14.80;58.70;;;;;;5125475;27;20119;-67
2021/03/25 02:45:29;;;;;;;12.60;8.43;;;14.80;57.40;;;;;;5131345;27;20024;-68
2021/03/25 02:48:05;;;;;;;13.13;8.82;;;14.80;57.40;;;;;;5126127;27;20035;-68
2021/03/25 02:50:54;;;;;;;21.55;15.25;;;14.80;57.50;;;;;;5130250;27;20031;-66
2021/03/25 02:53:37;;;;;;;20.40;13.00;;;14.50;54.20;;;;;;5129117;27;20153;-66
2021/03/25 02:56:33;;;;;;;21.30;14.53;;;13.90;55.80;;;;;;5128409;27;20039;-66
2021/03/25 02:59:07;;;;;;;22.63;15.18;;;13.50;57.30;;;;;;5128109;27;20114;-66
2021/03/25 03:01:38;;;;;;;17.23;10.02;;;12.80;57.70;;;;;;5127740;27;20042;-66
2021/03/25 03:04:09;;;;;;;21.83;14.52;;;12.30;60.00;;;;;;5129197;27;20034;-67
2021/03/25 03:06:40;;;;;;;21.55;15.48;;;12.30;60.40;;;;;;5130774;27;20053;-67
2021/03/25 03:09:12;;;;;;;23.17;17.20;;;12.30;59.70;;;;;;5130650;27;20528;-67
2021/03/25 03:11:42;;;;;;;25.15;18.90;;;12.10;59.20;;;;;;5129653;27;20034;-67
2021/03/25 03:14:13;;;;;;;25.20;18.23;;;11.40;58.80;;;;;;5120555;27;20039;-66
2021/03/25 03:16:54;;;;;;;34.17;21.05;;;10.40;60.80;;;;;;5121338;27;20103;-66
2021/03/25 03:19:30;;;;;;;19.60;13.18;;;9.90;63.00;;;;;;5143187;27;20034;-67
2021/03/25 03:22:04;;;;;;;26.48;16.70;;;9.40;66.90;;;;;;5129061;27;20051;-66
2021/03/25 03:24:31;;;;;;;19.23;15.18;;;9.40;67.50;;;;;;5126938;27;20053;-66
2021/03/25 03:27:02;;;;;;;14.50;8.88;;;9.40;67.30;;;;;;5126919;27;20039;-67
2021/03/25 03:29:31;;;;;;;12.35;7.22;;;9.70;70.00;;;;;;5126045;27;20062;-67
2021/03/25 03:32:09;;;;;;;14.10;8.25;;;10.50;70.30;;;;;;5124107;27;20035;-67
2021/03/25 03:34:39;;;;;;;28.25;19.70;;;11.40;68.20;;;;;;5126659;27;20045;-67
2021/03/25 03:37:18;;;;;;;30.30;21.50;;;12.10;63.30;;;;;;5130278;27;20073;-67
2021/03/25 03:39:44;;;;;;;27.85;18.10;;;11.50;60.10;;;;;;5123625;27;20043;-67
2021/03/25 03:42:16;;;;;;;26.65;15.27;;;10.80;62.00;;;;;;5128021;27;20036;-66
2021/03/25 03:44:48;;;;;;;15.32;9.50;;;10.40;64.60;;;;;;5122735;27;20043;-70
2021/03/25 03:47:17;;;;;;;24.17;15.00;;;10.70;67.10;;;;;;5130599;27;20041;-66
2021/03/25 03:49:57;;;;;;;10.65;7.93;;;11.10;65.60;;;;;;5126181;27;20043;-66
2021/03/25 03:52:32;;;;;;;25.58;17.75;;;11.70;66.30;;;;;;5128179;27;20465;-67
2021/03/25 03:55:00;;;;;;;21.70;14.88;;;12.30;63.40;;;;;;5126130;27;20038;-67
2021/03/25 03:57:38;;;;;;;31.73;20.15;;;12.50;61.50;;;;;;5127972;27;20039;-67
2021/03/25 04:00:12;;;;;;;28.15;21.20;;;12.10;59.30;;;;;;5128188;27;20043;-67
2021/03/25 04:02:46;;;;;;;29.00;20.67;;;11.40;59.80;;;;;;5125643;27;20497;-67
2021/03/25 04:05:16;;;;;;;14.88;8.23;;;10.50;61.90;;;;;;5126691;27;20062;-67
2021/03/25 04:07:46;;;;;;;13.18;7.50;;;10.60;66.90;;;;;;5126151;27;20100;-67
2021/03/25 04:10:14;;;;;;;13.35;8.35;;;11.30;67.40;;;;;;5123198;27;20855;-67
2021/03/25 04:12:44;;;;;;;12.18;7.95;;;11.80;65.70;;;;;;5126529;27;20042;-67
2021/03/25 04:15:18;;;;;;;11.20;7.72;;;12.10;65.00;;;;;;5125342;27;20061;-67
2021/03/25 04:17:45;;;;;;;;;;;12.60;64.30;;;;;;5119411;27;20102;-67
2021/03/25 04:20:18;;;;;;;12.23;7.63;;;13.00;63.90;;;;;;5127498;27;20679;-67
2021/03/25 04:22:48;;;;;;;13.60;8.43;;;13.40;62.30;;;;;;5127503;27;20132;-66
2021/03/25 04:25:28;;;;;;;12.43;8.05;;;13.80;61.10;;;;;;5122919;27;20035;-67
2021/03/25 04:28:06;;;;;;;11.90;6.80;;;14.10;60.20;;;;;;5125609;27;20042;-66
2021/03/25 04:30:52;;;;;;;10.68;7.03;;;14.30;59.70;;;;;;5124127;27;20043;-67
2021/03/25 04:33:21;;;;;;;11.35;7.45;;;14.50;59.80;;;;;;5118013;27;20118;-67
2021/03/25 04:35:47;;;;;;;14.88;8.32;;;14.70;59.30;;;;;;5128082;27;20099;-67
2021/03/25 04:38:24;;;;;;;15.52;9.45;;;14.80;58.90;;;;;;5125482;27;20179;-67
2021/03/25 04:40:53;;;;;;;12.38;7.78;;;14.90;58.80;;;;;;5137841;27;20042;-67
2021/03/25 04:43:21;;;;;;;12.80;9.23;;;15.00;57.90;;;;;;5126664;27;20034;-67
2021/03/25 04:45:54;;;;;;;17.80;12.98;;;14.90;57.90;;;;;;5125026;27;20047;-67
2021/03/25 04:48:24;;;;;;;24.70;15.65;;;14.80;56.90;;;;;;5127723;27;20100;-67
2021/03/25 04:51:04;;;;;;;16.30;10.90;;;14.50;56.10;;;;;;5128001;27;20037;-67
2021/03/25 04:53:33;;;;;;;13.63;8.20;;;14.30;56.90;;;;;;5119010;27;20047;-66
2021/03/25 04:56:01;;;;;;;14.20;8.57;;;14.30;58.00;;;;;;5122507;27;20080;-66
2021/03/25 04:58:30;;;;;;;17.80;12.40;;;14.20;58.20;;;;;;5124153;27;20495;-66
2021/03/25 05:01:05;;;;;;;11.73;8.70;;;13.70;58.00;;;;;;5124141;27;20478;-66
2021/03/25 05:03:32;;;;;;;17.00;8.88;;;13.30;59.20;;;;;;5124623;27;20042;-65
2021/03/25 05:05:58;;;;;;;13.98;9.20;;;13.40;60.70;;;;;;5126909;27;20131;-67
2021/03/25 05:08:30;;;;;;;23.05;14.90;;;13.50;59.60;;;;;;5126717;27;20034;-67
2021/03/25 05:11:09;;;;;;;25.48;14.48;;;13.40;58.70;;;;;;5121517;27;20035;-67
2021/03/25 05:13:37;;;;;;;16.05;9.93;;;12.70;58.50;;;;;;5123030;27;20084;-67
2021/03/25 05:16:21;;;;;;;16.08;10.10;;;12.50;60.60;;;;;;5126179;27;20543;-67
2021/03/25 05:19:19;;;;;;;11.77;8.80;;;12.70;61.70;;;;;;5118043;27;20031;-67
2021/03/25 05:22:16;;;;;;;17.40;11.32;;;13.10;61.70;;;;;;5125748;27;20087;-67
2021/03/25 05:24:46;;;;;;;12.13;7.50;;;13.50;60.50;;;;;;5124062;27;20447;-68
2021/03/25 05:27:31;;;;;;;15.95;8.52;;;13.80;59.70;;;;;;5124693;27;20113;-68
2021/03/25 05:29:59;;;;;;;15.50;7.82;;;14.10;59.10;;;;;;5123555;27;20122;-67
2021/03/25 05:32:29;;;;;;;15.25;9.35;;;14.30;58.80;;;;;;5124219;27;20087;-67
2021/03/25 05:34:59;;;;;;;17.63;8.35;;;14.40;58.30;;;;;;5123000;27;20035;-67
2021/03/25 05:37:25;;;;;;;13.40;9.10;;;14.60;58.00;;;;;;5127781;27;20054;-68
2021/03/25 05:39:51;;;;;;;14.10;8.93;;;14.70;57.70;;;;;;5123884;27;20035;-68
2021/03/25 05:42:28;;;;;;;13.80;8.70;;;14.70;57.30;;;;;;5124229;27;20042;-67
2021/03/25 05:45:13;;;;;;;18.42;10.32;;;14.80;57.10;;;;;;5126123;27;20091;-67
2021/03/25 05:48:08;;;;;;;13.50;9.40;;;14.70;56.80;;;;;;5126410;27;20054;-68
2021/03/25 05:50:45;;;;;;;12.70;9.32;;;14.80;56.70;;;;;;5121294;27;20051;-67
2021/03/25 05:53:44;;;;;;;16.27;10.75;;;14.90;55.60;;;;;;5130760;27;20529;-67
2021/03/25 05:56:50;;;;;;;13.50;9.20;;;14.50;56.10;;;;;;5124617;27;20910;-68
2021/03/25 05:59:20;;;;;;;40.10;27.38;;;14.10;56.50;;;;;;5126382;27;20222;-68
2021/03/25 06:02:00;;;;;;;32.20;21.83;;;13.60;55.90;;;;;;5131358;27;20127;-68
2021/03/25 06:04:34;;;;;;;18.38;10.90;;;13.20;56.00;;;;;;5124383;27;20038;-67
2021/03/25 06:07:17;;;;;;;25.58;17.02;;;12.80;57.90;;;;;;5129187;27;20039;-67
2021/03/25 06:10:01;;;;;;;37.72;26.55;;;12.70;58.50;;;;;;5126642;27;20038;-68
2021/03/25 06:12:48;;;;;;;32.22;22.63;;;12.40;58.60;;;;;;5127356;27;20471;-68
2021/03/25 06:15:33;;;;;;;21.45;13.57;;;11.60;59.00;;;;;;5118535;27;20150;-68
2021/03/25 06:18:40;;;;;;;24.83;17.20;;;11.50;62.80;;;;;;5128476;27;20042;-67
2021/03/25 06:21:30;;;;;;;25.10;12.85;;;11.50;61.60;;;;;;5129328;27;20033;-67
2021/03/25 06:24:33;;;;;;;36.90;27.85;;;11.80;63.60;;;;;;5129278;27;20078;-66
2021/03/25 06:27:08;;;;;;;47.10;30.55;;;11.90;60.40;;;;;;5128742;27;20087;-63
2021/03/25 06:29:41;;;;;;;45.67;30.75;;;11.70;59.70;;;;;;5128538;27;20046;-63
2021/03/25 06:32:20;;;;;;;43.63;30.90;;;11.40;59.60;;;;;;5131885;27;20785;-62
2021/03/25 06:34:55;;;;;;;49.35;31.80;;;10.90;60.40;;;;;;5126810;27;20035;-62
2021/03/25 06:37:41;;;;;;;50.97;32.22;;;10.40;61.70;;;;;;5130640;27;20043;-62
2021/03/25 06:40:18;;;;;;;50.20;33.55;;;9.90;63.00;;;;;;5126248;27;20038;-62
2021/03/25 06:42:47;;;;;;;52.42;32.15;;;9.50;64.70;;;;;;5127551;27;20043;-62
2021/03/25 06:45:39;;;;;;;45.00;30.08;;;9.30;65.60;;;;;;5128429;27;20035;-62
2021/03/25 06:48:19;;;;;;;52.80;33.17;;;9.50;65.60;;;;;;5118108;27;20054;-62
2021/03/25 06:50:53;;;;;;;49.42;33.58;;;9.70;65.50;;;;;;5127278;27;20125;-63
2021/03/25 06:53:31;;;;;;;55.38;33.65;;;9.80;65.50;;;;;;5120479;27;20060;-63
2021/03/25 06:56:07;;;;;;;47.50;31.65;;;9.90;65.40;;;;;;5126761;27;20043;-63
2021/03/25 06:58:40;;;;;;;56.70;32.20;;;10.10;65.30;;;;;;5121485;27;22310;-63
2021/03/25 07:01:22;;;;;;;54.85;32.22;;;10.30;65.20;;;;;;5124320;27;20533;-63
2021/03/25 07:03:54;;;;;;;48.90;32.42;;;10.40;64.90;;;;;;5124117;27;20045;-63
2021/03/25 07:06:21;;;;;;;50.17;33.88;;;10.50;64.80;;;;;;5121846;27;20035;-63
2021/03/25 07:08:48;;;;;;;51.38;32.97;;;10.50;64.70;;;;;;5124129;27;20125;-62
2021/03/25 07:11:18;;;;;;;51.38;34.20;;;10.50;64.90;;;;;;5120957;27;20038;-63
2021/03/25 07:14:04;;;;;;;57.40;35.22;;;10.50;65.20;;;;;;5122972;27;20106;-62
2021/03/25 07:16:32;;;;;;;49.25;32.50;;;10.50;65.10;;;;;;5124248;27;20057;-62
2021/03/25 07:19:01;;;;;;;54.30;33.65;;;10.50;65.20;;;;;;5124639;27;20031;-62
2021/03/25 07:21:33;;;;;;;58.03;36.05;;;10.50;65.20;;;;;;5102425;27;20078;-64
2021/03/25 07:24:03;;;;;;;54.25;35.28;;;10.60;65.10;;;;;;5126114;27;20996;-62
2021/03/25 07:26:44;;;;;;;44.85;30.38;;;10.60;65.20;;;;;;5123420;27;20061;-64
2021/03/25 07:29:10;;;;;;;54.50;33.92;;;10.80;65.40;;;;;;5101347;27;20071;-63
2021/03/25 07:31:43;;;;;;;51.00;32.88;;;11.20;64.60;;;;;;5122490;27;20043;-63
2021/03/25 07:34:09;;;;;;;56.05;33.30;;;11.50;63.80;;;;;;5119411;27;20044;-64
2021/03/25 07:36:54;;;;;;;24.23;14.10;;;11.80;63.00;;;;;;5119272;27;20118;-66
2021/03/25 07:39:30;;;;;;;39.40;22.35;;;12.30;67.10;;;;;;5118871;27;20566;-62
2021/03/25 07:41:58;;;;;;;30.10;19.27;;;12.90;66.50;;;;;;5126145;27;21217;-62
2021/03/25 07:44:24;;;;;;;36.53;23.83;;;13.50;65.00;;;;;;5125693;27;20132;-63
2021/03/25 07:46:55;;;;;;;34.17;19.63;;;13.90;63.30;;;;;;5125526;27;20052;-63
2021/03/25 07:49:25;;;;;;;42.00;26.45;;;14.40;62.30;;;;;;5123441;27;20059;-63
2021/03/25 07:51:57;;;;;;;34.05;20.13;;;14.80;60.50;;;;;;5122601;27;20035;-63
2021/03/25 07:54:32;;;;;;;46.10;29.75;;;15.20;59.70;;;;;;5123628;27;20114;-63
2021/03/25 07:57:12;;;;;;;55.28;35.35;;;15.40;58.20;;;;;;5126730;27;20036;-63
2021/03/25 07:59:42;;;;;;;44.15;28.67;;;15.40;56.90;;;;;;5126203;27;20100;-63
2021/03/25 08:02:25;;;;;;;44.90;27.75;;;15.40;57.10;;;;;;5122566;27;20039;-67
2021/03/25 08:04:51;;;;;;;36.10;23.25;;;15.80;57.60;;;;;;5124785;27;20039;-76
2021/03/25 08:07:18;;;;;;;53.30;32.70;;;16.00;57.30;;;;;;5138057;27;20530;-63
2021/03/25 08:09:58;;;;;;;36.92;21.15;;;16.20;55.60;;;;;;5113534;27;20089;-62
2021/03/25 08:12:30;;;;;;;46.22;29.17;;;16.20;56.20;;;;;;5123239;27;20047;-63
2021/03/25 08:15:32;;;;;;;32.30;21.25;;;16.40;55.30;;;;;;5118612;27;20127;-64
2021/03/25 08:18:21;;;;;;;53.75;34.28;;;16.60;54.30;;;;;;5123453;27;20035;-65
2021/03/25 08:21:16;;;;;;;47.65;29.80;;;16.90;54.40;;;;;;5125148;27;20043;-65
2021/03/25 08:24:02;;;;;;;52.75;35.00;;;17.20;53.30;;;;;;5123639;27;20039;-64
2021/03/25 08:27:00;;;;;;;31.80;22.02;;;17.20;52.80;;;;;;5120297;27;20039;-64
2021/03/25 08:29:36;;;;;;;49.42;34.08;;;17.20;52.70;;;;;;5097615;27;20043;-64
2021/03/25 08:32:11;;;;;;;36.25;23.33;;;17.20;51.40;;;;;;5120140;27;20668;-68
2021/03/25 08:34:59;;;;;;;40.03;29.10;;;17.00;52.70;;;;;;5139454;27;20050;-65
2021/03/25 08:37:39;;;;;;;59.03;37.78;;;17.10;52.60;;;;;;5135506;27;20158;-66
2021/03/25 08:40:22;;;;;;;54.38;32.60;;;16.90;51.20;;;;;;5123576;27;20072;-66
2021/03/25 08:42:52;;;;;;;31.30;21.80;;;16.60;52.30;;;;;;5123372;27;20043;-66
2021/03/25 08:45:23;;;;;;;49.47;33.42;;;16.80;53.20;;;;;;5125475;27;20118;-65
2021/03/25 08:48:01;;;;;;;41.40;27.35;;;17.00;52.00;;;;;;5101917;27;20078;-66
2021/03/25 08:50:45;;;;;;;32.72;22.45;;;17.30;52.50;;;;;;5124676;27;20067;-64
2021/03/25 08:53:25;;;;;;;42.22;26.77;;;17.40;52.00;;;;;;5117946;27;20039;-63
2021/03/25 08:55:54;;;;;;;37.65;26.10;;;17.50;51.60;;;;;;5123456;27;20458;-67
2021/03/25 08:58:30;;;;;;;34.80;20.92;;;17.70;51.40;;;;;;5125710;27;20063;-67
2021/03/25 09:01:00;;;;;;;46.03;31.70;;;17.90;51.00;;;;;;5122594;27;20047;-66
2021/03/25 09:03:48;;;;;;;40.05;24.98;;;18.00;50.30;;;;;;5117483;27;20039;-66
2021/03/25 09:06:23;;;;;;;49.28;31.73;;;17.90;50.80;;;;;;5118906;27;20043;-66
2021/03/25 09:08:56;;;;;;;40.80;26.73;;;17.90;50.90;;;;;;5124770;27;20103;-66
2021/03/25 09:11:22;;;;;;;45.60;28.77;;;18.00;50.90;;;;;;5126029;27;20130;-66
2021/03/25 09:13:55;;;;;;;56.75;32.38;;;17.90;50.60;;;;;;5125538;27;20035;-66
2021/03/25 09:16:25;;;;;;;49.60;32.80;;;17.90;50.60;;;;;;5125984;27;20039;-66
2021/03/25 09:18:52;;;;;;;27.63;19.05;;;18.00;49.80;;;;;;5125674;27;20062;-67
2021/03/25 09:21:24;;;;;;;31.27;21.88;;;18.10;50.90;;;;;;5123579;27;20038;-67
2021/03/25 09:23:59;;;;;;;39.63;23.80;;;18.20;51.40;;;;;;5140189;27;20035;-67
2021/03/25 09:26:24;;;;;;;44.55;28.38;;;18.20;51.10;;;;;;5139010;27;20386;-67
2021/03/25 09:28:53;;;;;;;23.73;17.00;;;18.00;49.90;;;;;;5119876;27;20039;-67
2021/03/25 09:31:22;;;;;;;39.63;27.42;;;18.10;51.50;;;;;;5125841;27;20239;-67
2021/03/25 09:33:59;;;;;;;29.73;19.88;;;18.10;49.80;;;;;;5122238;27;20038;-69
2021/03/25 09:36:39;;;;;;;26.30;18.20;;;17.90;51.10;;;;;;5123496;27;20051;-67
2021/03/25 09:39:23;;;;;;;30.92;21.80;;;18.00;52.30;;;;;;5117787;27;20470;-67
2021/03/25 09:41:50;;;;;;;33.25;17.63;;;18.00;50.80;;;;;;5120059;27;20043;-67
2021/03/25 09:44:23;;;;;;;29.08;18.30;;;18.00;51.40;;;;;;5125594;27;20054;-67
2021/03/25 09:46:55;;;;;;;27.75;18.48;;;18.20;51.10;;;;;;5123384;27;20041;-68
2021/03/25 09:49:32;;;;;;;27.13;19.83;;;18.40;51.20;;;;;;5123648;27;20023;-68
2021/03/25 09:52:11;;;;;;;25.95;17.65;;;18.50;50.20;;;;;;5125390;27;20072;-67
2021/03/25 09:54:57;;;;;;;41.83;27.05;;;18.60;50.20;;;;;;5139307;27;20662;-67
2021/03/25 09:57:31;;;;;;;18.33;10.02;;;18.60;48.50;;;;;;5139906;27;20055;-67
2021/03/25 10:00:16;;;;;;;25.38;17.88;;;18.10;50.70;;;;;;5123783;27;20046;-67
2021/03/25 10:02:42;;;;;;;39.58;24.77;;;18.10;51.40;;;;;;5124067;27;20126;-67
2021/03/25 10:05:35;;;;;;;39.75;23.45;;;17.80;50.20;;;;;;5125813;27;20045;-67
2021/03/25 10:08:11;;;;;;;31.87;19.73;;;17.30;49.20;;;;;;5124460;27;20062;-67
2021/03/25 10:10:37;;;;;;;19.75;12.38;;;17.10;51.70;;;;;;5124161;27;20308;-67
2021/03/25 10:13:06;;;;;;;24.77;16.45;;;17.10;52.80;;;;;;5141227;27;20143;-67
2021/03/25 10:15:32;;;;;;;39.08;24.15;;;17.40;52.90;;;;;;5126501;27;20031;-69
2021/03/25 10:18:08;;;;;;;27.25;17.85;;;17.70;51.20;;;;;;5130320;27;20533;-68
2021/03/25 10:20:52;;;;;;;23.77;14.68;;;17.60;51.10;;;;;;5123140;27;20066;-68
2021/03/25 10:23:19;;;;;;;;;;;17.70;50.90;;;;;;5124710;27;20070;-67
2021/03/25 10:25:47;;;;;;;28.17;17.60;;;17.60;52.00;;;;;;5122252;27;20008;-68
2021/03/25 10:28:14;;;;;;;19.63;12.65;;;17.80;51.40;;;;;;5125120;27;20043;-66
2021/03/25 10:30:41;;;;;;;17.60;12.05;;;17.80;51.40;;;;;;5126016;27;20046;-66
2021/03/25 10:33:12;;;;;;;36.45;20.40;;;17.70;51.30;;;;;;5129023;27;20197;-66
2021/03/25 10:35:54;;;;;;;12.13;7.88;;;17.50;50.20;;;;;;5128904;27;20604;-66
2021/03/25 10:38:25;;;;;;;20.17;11.88;;;17.50;52.50;;;;;;5122423;27;20039;-65
2021/03/25 10:41:00;;;;;;;20.45;12.75;;;17.80;52.30;;;;;;5120245;27;20161;-64
2021/03/25 10:43:35;;;;;;;20.63;12.18;;;18.00;51.30;;;;;;5130065;27;20047;-65
2021/03/25 10:46:05;;;;;;;19.30;11.98;;;17.90;49.30;;;;;;5129257;27;20085;-65
2021/03/25 10:48:35;;;;;;;25.13;14.63;;;17.70;50.80;;;;;;5125682;27;20031;-65
2021/03/25 10:51:07;;;;;;;23.00;15.38;;;17.80;50.70;;;;;;5126146;27;20126;-64
2021/03/25 10:53:38;;;;;;;25.50;13.48;;;17.80;49.60;;;;;;5126492;27;20051;-67
2021/03/25 10:56:15;;;;;;;18.25;10.15;;;17.50;50.10;;;;;;5126500;27;20103;-68
2021/03/25 10:58:44;;;;;;;20.00;11.73;;;17.50;51.90;;;;;;5121134;27;20039;-68
2021/03/25 11:01:37;;;;;;;21.20;9.18;;;17.60;51.60;;;;;;5122030;27;20039;-67
2021/03/25 11:04:22;;;;;;;19.98;13.68;;;17.80;51.90;;;;;;5126547;27;20061;-68
2021/03/25 11:06:49;;;;;;;23.38;16.08;;;17.80;50.30;;;;;;5121014;27;20039;-67
2021/03/25 11:09:26;;;;;;;16.73;11.60;;;17.90;51.10;;;;;;5126560;27;20113;-68
2021/03/25 11:11:57;;;;;;;18.50;11.80;;;17.90;51.00;;;;;;5123257;27;20432;-67
2021/03/25 11:14:43;;;;;;;25.27;15.93;;;18.10;51.10;;;;;;5126256;27;20134;-68
2021/03/25 11:17:42;;;;;;;17.77;9.48;;;18.10;48.70;;;;;;5125987;27;20043;-68
2021/03/25 11:20:14;;;;;;;21.77;13.93;;;17.70;50.50;;;;;;5118462;27;21564;-67
2021/03/25 11:22:40;;;;;;;21.73;12.23;;;17.70;50.60;;;;;;5125789;27;20031;-67
2021/03/25 11:25:14;;;;;;;27.23;16.38;;;17.50;50.60;;;;;;5129093;27;20027;-67
2021/03/25 11:27:40;;;;;;;20.67;12.32;;;17.60;49.50;;;;;;5128523;27;20114;-67
2021/03/25 11:30:48;;;;;;;15.02;9.20;;;17.70;50.40;;;;;;5118722;27;20034;-67
2021/03/25 11:33:25;;;;;;;15.90;9.70;;;17.90;51.40;;;;;;5086928;27;20658;-66
2021/03/25 11:35:52;;;;;;;15.80;9.73;;;18.00;50.90;;;;;;5124378;27;20134;-67
2021/03/25 11:38:40;;;;;;;22.40;11.73;;;17.90;51.20;;;;;;5123722;27;20035;-67
2021/03/25 11:41:28;;;;;;;26.95;13.77;;;17.80;51.30;;;;;;5118773;27;20035;-66
2021/03/25 11:43:57;;;;;;;14.73;10.02;;;17.60;50.90;;;;;;5122197;27;20066;-65
2021/03/25 11:46:33;;;;;;;24.67;12.13;;;17.60;52.10;;;;;;5122627;27;20031;-66
2021/03/25 11:49:21;;;;;;;17.15;10.48;;;17.70;51.80;;;;;;5126752;27;20683;-66
2021/03/25 11:52:00;;;;;;;21.88;13.15;;;17.80;51.90;;;;;;5124733;27;20030;-65
2021/03/25 11:54:35;;;;;;;22.83;15.57;;;17.70;51.50;;;;;;5116406;27;20051;-65
2021/03/25 11:57:35;;;;;;;29.55;16.23;;;17.70;50.70;;;;;;5121084;27;20039;-65
2021/03/25 12:00:19;;;;;;;20.98;12.73;;;17.60;50.60;;;;;;5070531;27;20076;-66
2021/03/25 12:02:45;;;;;;;22.13;13.52;;;17.50;50.90;;;;;;5126756;27;20047;-73
2021/03/25 12:05:32;;;;;;;14.13;8.55;;;17.40;51.50;;;;;;5127943;27;20050;-73
2021/03/25 12:08:13;;;;;;;20.25;14.10;;;17.40;51.90;;;;;;5129209;27;20361;-73
2021/03/25 12:10:41;;;;;;;18.65;11.25;;;17.30;51.90;;;;;;5123764;27;20042;-73
2021/03/25 12:13:08;;;;;;;17.27;11.57;;;17.30;52.00;;;;;;5128014;27;20043;-72
2021/03/25 12:15:35;;;;;;;19.77;12.95;;;17.50;52.30;;;;;;5129515;27;20026;-73
2021/03/25 12:18:06;;;;;;;18.30;12.48;;;17.60;51.20;;;;;;5130344;27;20042;-73
2021/03/25 12:20:37;;;;;;;20.23;13.88;;;17.50;50.80;;;;;;5130898;27;20040;-73
2021/03/25 12:23:28;;;;;;;19.05;12.90;;;17.50;50.50;;;;;;5129369;27;20050;-74
2021/03/25 12:25:56;;;;;;;18.75;11.38;;;17.30;50.50;;;;;;5123359;27;20073;-74
2021/03/25 12:28:23;;;;;;;18.90;13.40;;;17.20;51.10;;;;;;5120910;27;20481;-73
2021/03/25 12:30:49;;;;;;;21.15;13.43;;;17.20;51.70;;;;;;5128451;27;20031;-74
2021/03/25 12:33:23;;;;;;;23.27;14.93;;;17.00;51.20;;;;;;5120022;27;20038;-74
2021/03/25 12:35:50;;;;;;;23.95;16.33;;;17.00;51.40;;;;;;5127258;27;20367;-74
2021/03/25 12:38:16;;;;;;;23.42;13.90;;;16.90;51.30;;;;;;5123242;27;20042;-73
2021/03/25 12:40:42;;;;;;;23.70;16.48;;;16.90;51.60;;;;;;5122711;27;20035;-74
2021/03/25 12:43:10;;;;;;;20.30;14.23;;;17.00;51.30;;;;;;5126349;27;20046;-74
2021/03/25 12:45:39;;;;;;;24.02;16.08;;;17.10;51.50;;;;;;5124270;27;20031;-73
2021/03/25 12:48:06;;;;;;;22.05;14.85;;;17.00;51.40;;;;;;5124978;27;20042;-73
2021/03/25 12:50:32;;;;;;;29.05;18.73;;;17.10;51.10;;;;;;5123998;27;20043;-74
2021/03/25 12:52:59;;;;;;;24.95;13.93;;;17.00;50.90;;;;;;5122462;27;20486;-74
2021/03/25 12:55:26;;;;;;;18.05;11.13;;;16.80;51.50;;;;;;5123846;27;20035;-73
2021/03/25 12:57:54;;;;;;;17.73;13.57;;;16.70;51.70;;;;;;5126200;27;20646;-73
2021/03/25 13:00:25;;;;;;;20.45;13.60;;;16.70;52.30;;;;;;5127674;27;20050;-74
2021/03/25 13:02:51;;;;;;;21.85;14.45;;;16.60;51.90;;;;;;5124588;27;20378;-73
2021/03/25 13:05:17;;;;;;;21.48;15.23;;;16.50;52.20;;;;;;5120418;27;20038;-74
2021/03/25 13:07:43;;;;;;;25.95;15.77;;;16.40;53.90;;;;;;5123746;27;20022;-74
2021/03/25 13:10:10;;;;;;;22.05;14.55;;;16.30;55.10;;;;;;5123883;27;20054;-74